sensor_id;sensor_type;location;lat;lon;timestamp;temperature;humidity
15231;DHT22;32569;51.762;8.564;2023-02-28T00:02:25;0.30;99.50
15231;DHT22;32569;51.762;8.564;2023-02-28T00:04:55;0.10;99.90
15231;DHT22;32569;51.762;8.564;2023-02-28T00:07:29;0.10;99.80
15231;DHT22;32569;51.762;8.564;2023-02-28T00:09:56;0.10;99.70
15231;DHT22;32569;51.762;8.564;2023-02-28T00:12:24;0.00;99.90
15231;DHT22;32569;51.762;8.564;2023-02-28T00:14:51;0.10;99.90
15231;DHT22;32569;51.762;8.564;2023-02-28T00:17:18;0.00;99.70
15231;DHT22;32569;51.762;8.564;2023-02-28T00:19:47;0.00;99.40
15231;DHT22;32569;51.762;8.564;2023-02-28T00:22:17;0.00;99.40
15231;DHT22;32569;51.762;8.564;2023-02-28T00:24:44;0.10;99.30
15231;DHT22;32569;51.762;8.564;2023-02-28T00:27:11;0.20;99.10
15231;DHT22;32569;51.762;8.564;2023-02-28T00:29:40;0.20;99.10
15231;DHT22;32569;51.762;8.564;2023-02-28T00:32:06;0.20;99.00
15231;DHT22;32569;51.762;8.564;2023-02-28T00:34:36;0.10;98.90
15231;DHT22;32569;51.762;8.564;2023-02-28T00:37:04;0.10;99.00
15231;DHT22;32569;51.762;8.564;2023-02-28T00:39:33;0.10;99.10
15231;DHT22;32569;51.762;8.564;2023-02-28T00:42:00;0.00;99.70
15231;DHT22;32569;51.762;8.564;2023-02-28T00:44:27;-0.10;99.90
15231;DHT22;32569;51.762;8.564;2023-02-28T00:46:55;0.00;99.90
15231;DHT22;32569;51.762;8.564;2023-02-28T00:49:22;0.00;99.90
15231;DHT22;32569;51.762;8.564;2023-02-28T00:51:49;0.00;99.70
15231;DHT22;32569;51.762;8.564;2023-02-28T00:54:19;-0.10;99.90
15231;DHT22;32569;51.762;8.564;2023-02-28T00:56:46;-0.10;99.90
15231;DHT22;32569;51.762;8.564;2023-02-28T00:59:13;-0.20;99.90
15231;DHT22;32569;51.762;8.564;2023-02-28T01:01:40;-0.30;99.90
15231;DHT22;32569;51.762;8.564;2023-02-28T01:04:09;-0.20;99.90
15231;DHT22;32569;51.762;8.564;2023-02-28T01:06:35;-0.10;99.40
15231;DHT22;32569;51.762;8.564;2023-02-28T01:09:02;-0.10;99.00
15231;DHT22;32569;51.762;8.564;2023-02-28T01:11:29;-0.10;98.90
15231;DHT22;32569;51.762;8.564;2023-02-28T01:13:56;-0.10;98.90
15231;DHT22;32569;51.762;8.564;2023-02-28T01:16:23;-0.10;99.00
15231;DHT22;32569;51.762;8.564;2023-02-28T01:18:50;-0.20;98.90
15231;DHT22;32569;51.762;8.564;2023-02-28T01:21:19;-0.10;99.00
15231;DHT22;32569;51.762;8.564;2023-02-28T01:23:49;-0.10;98.90
15231;DHT22;32569;51.762;8.564;2023-02-28T01:26:18;-0.30;99.30
15231;DHT22;32569;51.762;8.564;2023-02-28T01:28:45;-0.30;99.30
15231;DHT22;32569;51.762;8.564;2023-02-28T01:31:13;-0.30;99.30
15231;DHT22;32569;51.762;8.564;2023-02-28T01:33:40;-0.30;99.40
15231;DHT22;32569;51.762;8.564;2023-02-28T01:36:10;-0.40;99.60
15231;DHT22;32569;51.762;8.564;2023-02-28T01:38:38;-0.40;99.90
15231;DHT22;32569;51.762;8.564;2023-02-28T01:41:06;-0.40;99.90
15231;DHT22;32569;51.762;8.564;2023-02-28T01:43:53;-0.40;99.60
15231;DHT22;32569;51.762;8.564;2023-02-28T01:46:20;-0.50;99.40
15231;DHT22;32569;51.762;8.564;2023-02-28T01:48:59;-0.40;99.60
15231;DHT22;32569;51.762;8.564;2023-02-28T01:51:29;-0.40;99.00
15231;DHT22;32569;51.762;8.564;2023-02-28T01:54:01;-0.50;99.10
15231;DHT22;32569;51.762;8.564;2023-02-28T01:56:32;-0.40;99.00
15231;DHT22;32569;51.762;8.564;2023-02-28T01:59:01;-0.50;99.10
15231;DHT22;32569;51.762;8.564;2023-02-28T02:01:29;-0.60;99.60
15231;DHT22;32569;51.762;8.564;2023-02-28T02:03:59;-0.70;99.90
15231;DHT22;32569;51.762;8.564;2023-02-28T02:06:30;-0.80;99.90
15231;DHT22;32569;51.762;8.564;2023-02-28T02:09:00;-0.80;99.90
15231;DHT22;32569;51.762;8.564;2023-02-28T02:11:34;-0.90;99.90
15231;DHT22;32569;51.762;8.564;2023-02-28T02:14:12;-0.90;99.90
15231;DHT22;32569;51.762;8.564;2023-02-28T02:16:58;-0.80;99.90
15231;DHT22;32569;51.762;8.564;2023-02-28T02:20:04;-1.00;99.90
15231;DHT22;32569;51.762;8.564;2023-02-28T02:23:17;-1.10;99.90
15231;DHT22;32569;51.762;8.564;2023-02-28T02:25:56;-1.10;99.90
15231;DHT22;32569;51.762;8.564;2023-02-28T02:28:53;-1.00;99.90
15231;DHT22;32569;51.762;8.564;2023-02-28T02:31:38;-1.00;99.90
15231;DHT22;32569;51.762;8.564;2023-02-28T02:34:25;-1.10;99.90
15231;DHT22;32569;51.762;8.564;2023-02-28T02:37:00;-1.20;99.90
15231;DHT22;32569;51.762;8.564;2023-02-28T02:39:38;-1.10;99.90
15231;DHT22;32569;51.762;8.564;2023-02-28T02:42:13;-1.00;99.90
15231;DHT22;32569;51.762;8.564;2023-02-28T02:44:46;-1.10;99.90
15231;DHT22;32569;51.762;8.564;2023-02-28T02:47:15;-1.00;99.90
15231;DHT22;32569;51.762;8.564;2023-02-28T02:49:47;-0.80;99.90
15231;DHT22;32569;51.762;8.564;2023-02-28T02:52:24;-0.80;99.50
15231;DHT22;32569;51.762;8.564;2023-02-28T02:54:55;-0.70;99.30
15231;DHT22;32569;51.762;8.564;2023-02-28T02:57:25;-0.70;99.20
15231;DHT22;32569;51.762;8.564;2023-02-28T02:59:55;-0.70;99.30
15231;DHT22;32569;51.762;8.564;2023-02-28T03:02:27;-0.80;99.30
15231;DHT22;32569;51.762;8.564;2023-02-28T03:05:03;-0.80;99.60
15231;DHT22;32569;51.762;8.564;2023-02-28T03:07:33;-0.80;99.20
15231;DHT22;32569;51.762;8.564;2023-02-28T03:10:00;-0.90;99.20
15231;DHT22;32569;51.762;8.564;2023-02-28T03:12:33;-1.00;99.40
15231;DHT22;32569;51.762;8.564;2023-02-28T03:15:10;-1.10;99.30
15231;DHT22;32569;51.762;8.564;2023-02-28T03:18:00;-1.20;99.40
15231;DHT22;32569;51.762;8.564;2023-02-28T03:20:40;-1.20;99.50
15231;DHT22;32569;51.762;8.564;2023-02-28T03:23:16;-1.10;99.50
15231;DHT22;32569;51.762;8.564;2023-02-28T03:25:53;-1.20;99.50
15231;DHT22;32569;51.762;8.564;2023-02-28T03:28:31;-1.20;99.60
15231;DHT22;32569;51.762;8.564;2023-02-28T03:31:01;-1.30;99.50
15231;DHT22;32569;51.762;8.564;2023-02-28T03:33:32;-1.30;99.50
15231;DHT22;32569;51.762;8.564;2023-02-28T03:36:03;-1.20;99.40
15231;DHT22;32569;51.762;8.564;2023-02-28T03:38:33;-1.20;99.40
15231;DHT22;32569;51.762;8.564;2023-02-28T03:41:09;-1.30;99.50
15231;DHT22;32569;51.762;8.564;2023-02-28T03:43:40;-1.30;99.60
15231;DHT22;32569;51.762;8.564;2023-02-28T03:46:10;-1.40;99.70
15231;DHT22;32569;51.762;8.564;2023-02-28T03:48:42;-1.30;99.70
15231;DHT22;32569;51.762;8.564;2023-02-28T03:51:18;-1.40;99.80
15231;DHT22;32569;51.762;8.564;2023-02-28T03:53:49;-1.40;99.80
15231;DHT22;32569;51.762;8.564;2023-02-28T03:56:20;-1.40;99.80
15231;DHT22;32569;51.762;8.564;2023-02-28T03:58:51;-1.40;99.90
15231;DHT22;32569;51.762;8.564;2023-02-28T04:01:23;-1.40;99.90
15231;DHT22;32569;51.762;8.564;2023-02-28T04:03:51;-1.40;99.90
15231;DHT22;32569;51.762;8.564;2023-02-28T04:06:26;-1.50;99.90
15231;DHT22;32569;51.762;8.564;2023-02-28T04:08:52;-1.50;99.90
15231;DHT22;32569;51.762;8.564;2023-02-28T04:11:22;-1.40;99.90
15231;DHT22;32569;51.762;8.564;2023-02-28T04:13:50;-1.50;99.90
15231;DHT22;32569;51.762;8.564;2023-02-28T04:16:16;-1.60;99.90
15231;DHT22;32569;51.762;8.564;2023-02-28T04:18:46;-1.60;99.90
15231;DHT22;32569;51.762;8.564;2023-02-28T04:21:15;-1.70;99.90
15231;DHT22;32569;51.762;8.564;2023-02-28T04:23:47;-1.60;99.90
15231;DHT22;32569;51.762;8.564;2023-02-28T04:26:13;-1.50;99.90
15231;DHT22;32569;51.762;8.564;2023-02-28T04:28:40;-1.60;99.90
15231;DHT22;32569;51.762;8.564;2023-02-28T04:31:07;-1.60;99.90
15231;DHT22;32569;51.762;8.564;2023-02-28T04:33:33;-1.60;99.90
15231;DHT22;32569;51.762;8.564;2023-02-28T04:36:01;-1.60;99.70
15231;DHT22;32569;51.762;8.564;2023-02-28T04:38:29;-1.60;99.90
15231;DHT22;32569;51.762;8.564;2023-02-28T04:41:00;-1.70;99.90
15231;DHT22;32569;51.762;8.564;2023-02-28T04:43:28;-1.60;99.90
15231;DHT22;32569;51.762;8.564;2023-02-28T04:46:01;-1.70;99.90
15231;DHT22;32569;51.762;8.564;2023-02-28T04:48:30;-1.70;99.90
15231;DHT22;32569;51.762;8.564;2023-02-28T04:51:00;-1.70;99.90
15231;DHT22;32569;51.762;8.564;2023-02-28T04:53:28;-1.60;99.80
15231;DHT22;32569;51.762;8.564;2023-02-28T04:56:02;-1.70;99.80
15231;DHT22;32569;51.762;8.564;2023-02-28T04:58:30;-1.70;99.70
15231;DHT22;32569;51.762;8.564;2023-02-28T05:01:02;-1.70;99.70
15231;DHT22;32569;51.762;8.564;2023-02-28T05:03:29;-1.60;99.70
15231;DHT22;32569;51.762;8.564;2023-02-28T05:05:55;-1.60;99.50
15231;DHT22;32569;51.762;8.564;2023-02-28T05:08:22;-1.70;99.40
15231;DHT22;32569;51.762;8.564;2023-02-28T05:10:48;-1.60;99.50
15231;DHT22;32569;51.762;8.564;2023-02-28T05:13:18;-1.60;99.70
15231;DHT22;32569;51.762;8.564;2023-02-28T05:15:46;-1.60;99.90
15231;DHT22;32569;51.762;8.564;2023-02-28T05:18:12;-1.60;99.80
15231;DHT22;32569;51.762;8.564;2023-02-28T05:20:39;-1.70;99.90
15231;DHT22;32569;51.762;8.564;2023-02-28T05:23:06;-1.80;99.80
15231;DHT22;32569;51.762;8.564;2023-02-28T05:25:32;-1.80;99.60
15231;DHT22;32569;51.762;8.564;2023-02-28T05:27:59;-1.80;99.40
15231;DHT22;32569;51.762;8.564;2023-02-28T05:30:25;-1.80;99.10
15231;DHT22;32569;51.762;8.564;2023-02-28T05:32:53;-1.80;99.90
15231;DHT22;32569;51.762;8.564;2023-02-28T05:35:20;-1.70;99.70
15231;DHT22;32569;51.762;8.564;2023-02-28T05:37:47;-1.70;99.50
15231;DHT22;32569;51.762;8.564;2023-02-28T05:40:13;-1.80;99.60
15231;DHT22;32569;51.762;8.564;2023-02-28T05:42:41;-1.80;99.60
15231;DHT22;32569;51.762;8.564;2023-02-28T05:45:08;-1.70;99.50
15231;DHT22;32569;51.762;8.564;2023-02-28T05:47:35;-1.80;99.30
15231;DHT22;32569;51.762;8.564;2023-02-28T05:50:04;-1.80;99.60
15231;DHT22;32569;51.762;8.564;2023-02-28T05:52:31;-2.00;99.80
15231;DHT22;32569;51.762;8.564;2023-02-28T05:54:58;-2.00;99.70
15231;DHT22;32569;51.762;8.564;2023-02-28T05:57:25;-2.00;99.70
15231;DHT22;32569;51.762;8.564;2023-02-28T05:59:51;-1.90;99.90
15231;DHT22;32569;51.762;8.564;2023-02-28T06:02:18;-1.80;99.80
15231;DHT22;32569;51.762;8.564;2023-02-28T06:04:45;-1.90;99.90
15231;DHT22;32569;51.762;8.564;2023-02-28T06:07:13;-2.00;99.90
15231;DHT22;32569;51.762;8.564;2023-02-28T06:09:40;-2.10;99.90
15231;DHT22;32569;51.762;8.564;2023-02-28T06:12:07;-2.00;99.90
15231;DHT22;32569;51.762;8.564;2023-02-28T06:14:35;-1.80;99.90
15231;DHT22;32569;51.762;8.564;2023-02-28T06:17:02;-1.90;99.90
15231;DHT22;32569;51.762;8.564;2023-02-28T06:19:29;-2.00;99.90
15231;DHT22;32569;51.762;8.564;2023-02-28T06:21:56;-1.90;99.90
15231;DHT22;32569;51.762;8.564;2023-02-28T06:24:26;-2.00;99.90
15231;DHT22;32569;51.762;8.564;2023-02-28T06:26:54;-2.00;99.90
15231;DHT22;32569;51.762;8.564;2023-02-28T06:29:21;-1.90;99.90
15231;DHT22;32569;51.762;8.564;2023-02-28T06:31:48;-2.20;99.90
15231;DHT22;32569;51.762;8.564;2023-02-28T06:34:16;-2.30;99.90
15231;DHT22;32569;51.762;8.564;2023-02-28T06:36:43;-2.20;99.90
15231;DHT22;32569;51.762;8.564;2023-02-28T06:39:10;-2.10;99.90
15231;DHT22;32569;51.762;8.564;2023-02-28T06:41:38;-2.20;99.90
15231;DHT22;32569;51.762;8.564;2023-02-28T06:44:05;-2.30;99.90
15231;DHT22;32569;51.762;8.564;2023-02-28T06:46:39;-2.20;99.90
15231;DHT22;32569;51.762;8.564;2023-02-28T06:49:05;-2.20;99.90
15231;DHT22;32569;51.762;8.564;2023-02-28T06:51:34;-2.10;99.90
15231;DHT22;32569;51.762;8.564;2023-02-28T06:54:02;-2.10;99.90
15231;DHT22;32569;51.762;8.564;2023-02-28T06:56:29;-2.10;99.90
15231;DHT22;32569;51.762;8.564;2023-02-28T06:58:57;-2.00;99.90
15231;DHT22;32569;51.762;8.564;2023-02-28T07:01:23;-1.90;99.30
15231;DHT22;32569;51.762;8.564;2023-02-28T07:03:50;-1.80;98.90
15231;DHT22;32569;51.762;8.564;2023-02-28T07:06:17;-1.80;98.90
15231;DHT22;32569;51.762;8.564;2023-02-28T07:08:44;-1.80;98.90
15231;DHT22;32569;51.762;8.564;2023-02-28T07:11:11;-1.70;98.90
15231;DHT22;32569;51.762;8.564;2023-02-28T07:13:37;-1.70;99.00
15231;DHT22;32569;51.762;8.564;2023-02-28T07:16:07;-1.60;99.00
15231;DHT22;32569;51.762;8.564;2023-02-28T07:18:35;-1.50;98.80
15231;DHT22;32569;51.762;8.564;2023-02-28T07:21:03;-1.40;98.50
15231;DHT22;32569;51.762;8.564;2023-02-28T07:23:30;-1.30;98.20
15231;DHT22;32569;51.762;8.564;2023-02-28T07:25:57;-1.10;98.20
15231;DHT22;32569;51.762;8.564;2023-02-28T07:28:24;-1.10;97.70
15231;DHT22;32569;51.762;8.564;2023-02-28T07:30:50;-0.90;97.70
15231;DHT22;32569;51.762;8.564;2023-02-28T07:33:19;-0.90;97.30
15231;DHT22;32569;51.762;8.564;2023-02-28T07:35:45;-0.70;97.00
15231;DHT22;32569;51.762;8.564;2023-02-28T07:38:12;-0.60;96.80
15231;DHT22;32569;51.762;8.564;2023-02-28T07:40:39;-0.50;97.10
15231;DHT22;32569;51.762;8.564;2023-02-28T07:43:06;-0.40;96.70
15231;DHT22;32569;51.762;8.564;2023-02-28T07:45:33;-0.20;96.40
15231;DHT22;32569;51.762;8.564;2023-02-28T07:48:00;-0.20;96.50
15231;DHT22;32569;51.762;8.564;2023-02-28T07:50:29;-0.10;96.70
15231;DHT22;32569;51.762;8.564;2023-02-28T07:52:59;0.00;96.80
15231;DHT22;32569;51.762;8.564;2023-02-28T07:55:28;0.00;96.80
15231;DHT22;32569;51.762;8.564;2023-02-28T07:57:59;0.00;96.60
15231;DHT22;32569;51.762;8.564;2023-02-28T08:00:26;0.00;96.40
15231;DHT22;32569;51.762;8.564;2023-02-28T08:02:54;0.00;96.90
15231;DHT22;32569;51.762;8.564;2023-02-28T08:05:21;0.00;96.90
15231;DHT22;32569;51.762;8.564;2023-02-28T08:07:50;0.10;96.30
15231;DHT22;32569;51.762;8.564;2023-02-28T08:10:16;0.10;96.40
15231;DHT22;32569;51.762;8.564;2023-02-28T08:12:43;0.20;96.50
15231;DHT22;32569;51.762;8.564;2023-02-28T08:15:13;0.40;96.70
15231;DHT22;32569;51.762;8.564;2023-02-28T08:17:42;0.30;96.20
15231;DHT22;32569;51.762;8.564;2023-02-28T08:20:10;0.40;96.40
15231;DHT22;32569;51.762;8.564;2023-02-28T08:22:37;0.40;96.10
15231;DHT22;32569;51.762;8.564;2023-02-28T08:25:06;0.40;96.00
15231;DHT22;32569;51.762;8.564;2023-02-28T08:27:33;0.50;96.10
15231;DHT22;32569;51.762;8.564;2023-02-28T08:30:00;0.60;96.10
15231;DHT22;32569;51.762;8.564;2023-02-28T08:32:28;0.70;96.10
15231;DHT22;32569;51.762;8.564;2023-02-28T08:34:55;0.80;96.20
15231;DHT22;32569;51.762;8.564;2023-02-28T08:37:21;0.90;96.20
15231;DHT22;32569;51.762;8.564;2023-02-28T08:39:48;1.00;95.70
15231;DHT22;32569;51.762;8.564;2023-02-28T08:42:16;1.10;95.50
15231;DHT22;32569;51.762;8.564;2023-02-28T08:44:43;1.30;95.60
15231;DHT22;32569;51.762;8.564;2023-02-28T08:47:09;1.40;95.30
15231;DHT22;32569;51.762;8.564;2023-02-28T08:49:36;1.40;95.00
15231;DHT22;32569;51.762;8.564;2023-02-28T08:52:03;1.40;95.00
15231;DHT22;32569;51.762;8.564;2023-02-28T08:54:30;1.40;94.70
15231;DHT22;32569;51.762;8.564;2023-02-28T08:56:58;1.50;94.60
15231;DHT22;32569;51.762;8.564;2023-02-28T08:59:26;1.50;94.80
15231;DHT22;32569;51.762;8.564;2023-02-28T09:01:55;1.50;94.30
15231;DHT22;32569;51.762;8.564;2023-02-28T09:04:21;1.50;94.40
15231;DHT22;32569;51.762;8.564;2023-02-28T09:06:48;1.60;94.40
15231;DHT22;32569;51.762;8.564;2023-02-28T09:09:15;1.60;94.50
15231;DHT22;32569;51.762;8.564;2023-02-28T09:11:41;1.60;94.20
15231;DHT22;32569;51.762;8.564;2023-02-28T09:14:08;1.70;94.60
15231;DHT22;32569;51.762;8.564;2023-02-28T09:16:36;1.90;94.90
15231;DHT22;32569;51.762;8.564;2023-02-28T09:19:03;1.90;94.70
15231;DHT22;32569;51.762;8.564;2023-02-28T09:21:30;2.00;94.00
15231;DHT22;32569;51.762;8.564;2023-02-28T09:23:56;2.00;94.00
15231;DHT22;32569;51.762;8.564;2023-02-28T09:26:24;2.10;94.00
15231;DHT22;32569;51.762;8.564;2023-02-28T09:28:52;2.10;94.10
15231;DHT22;32569;51.762;8.564;2023-02-28T09:31:22;2.20;93.70
15231;DHT22;32569;51.762;8.564;2023-02-28T09:33:53;2.20;94.20
15231;DHT22;32569;51.762;8.564;2023-02-28T09:36:20;2.30;94.10
15231;DHT22;32569;51.762;8.564;2023-02-28T09:38:47;2.40;94.50
15231;DHT22;32569;51.762;8.564;2023-02-28T09:41:21;2.40;94.10
15231;DHT22;32569;51.762;8.564;2023-02-28T09:43:51;2.50;94.00
15231;DHT22;32569;51.762;8.564;2023-02-28T09:46:27;2.50;94.20
15231;DHT22;32569;51.762;8.564;2023-02-28T09:48:56;2.60;94.40
15231;DHT22;32569;51.762;8.564;2023-02-28T09:51:30;2.50;94.10
15231;DHT22;32569;51.762;8.564;2023-02-28T09:53:59;2.70;93.90
15231;DHT22;32569;51.762;8.564;2023-02-28T09:56:30;2.60;93.80
15231;DHT22;32569;51.762;8.564;2023-02-28T09:59:00;2.70;94.00
15231;DHT22;32569;51.762;8.564;2023-02-28T10:01:33;2.80;94.10
15231;DHT22;32569;51.762;8.564;2023-02-28T10:04:10;2.70;93.70
15231;DHT22;32569;51.762;8.564;2023-02-28T10:06:42;2.80;94.20
15231;DHT22;32569;51.762;8.564;2023-02-28T10:09:14;2.70;93.90
15231;DHT22;32569;51.762;8.564;2023-02-28T10:11:45;2.60;94.00
15231;DHT22;32569;51.762;8.564;2023-02-28T10:14:16;2.60;94.20
15231;DHT22;32569;51.762;8.564;2023-02-28T10:16:46;2.60;94.50
15231;DHT22;32569;51.762;8.564;2023-02-28T10:19:22;2.60;94.50
15231;DHT22;32569;51.762;8.564;2023-02-28T10:21:55;2.60;94.90
15231;DHT22;32569;51.762;8.564;2023-02-28T10:24:28;2.50;95.10
15231;DHT22;32569;51.762;8.564;2023-02-28T10:27:00;2.60;95.50
15231;DHT22;32569;51.762;8.564;2023-02-28T10:29:27;2.70;95.50
15231;DHT22;32569;51.762;8.564;2023-02-28T10:31:55;2.80;95.50
15231;DHT22;32569;51.762;8.564;2023-02-28T10:34:24;2.80;95.90
15231;DHT22;32569;51.762;8.564;2023-02-28T10:36:51;2.90;95.70
15231;DHT22;32569;51.762;8.564;2023-02-28T10:39:35;2.70;95.20
15231;DHT22;32569;51.762;8.564;2023-02-28T10:42:02;2.80;95.60
15231;DHT22;32569;51.762;8.564;2023-02-28T10:44:28;3.00;95.50
15231;DHT22;32569;51.762;8.564;2023-02-28T10:46:55;3.10;95.30
15231;DHT22;32569;51.762;8.564;2023-02-28T10:49:26;3.30;95.20
15231;DHT22;32569;51.762;8.564;2023-02-28T10:51:55;3.30;94.90
15231;DHT22;32569;51.762;8.564;2023-02-28T10:54:26;3.30;95.00
15231;DHT22;32569;51.762;8.564;2023-02-28T10:57:15;3.30;95.40
15231;DHT22;32569;51.762;8.564;2023-02-28T10:59:43;3.10;95.30
15231;DHT22;32569;51.762;8.564;2023-02-28T11:02:30;2.80;95.70
15231;DHT22;32569;51.762;8.564;2023-02-28T11:04:58;2.90;95.90
15231;DHT22;32569;51.762;8.564;2023-02-28T11:07:25;3.00;95.50
15231;DHT22;32569;51.762;8.564;2023-02-28T11:09:54;3.00;96.00
15231;DHT22;32569;51.762;8.564;2023-02-28T11:12:24;2.90;95.70
15231;DHT22;32569;51.762;8.564;2023-02-28T11:14:54;2.80;95.80
15231;DHT22;32569;51.762;8.564;2023-02-28T11:17:23;2.80;95.40
15231;DHT22;32569;51.762;8.564;2023-02-28T11:19:53;2.70;95.60
15231;DHT22;32569;51.762;8.564;2023-02-28T11:22:25;2.70;95.70
15231;DHT22;32569;51.762;8.564;2023-02-28T11:24:59;2.80;95.40
15231;DHT22;32569;51.762;8.564;2023-02-28T11:27:46;3.00;95.20
15231;DHT22;32569;51.762;8.564;2023-02-28T11:30:24;3.20;95.10
15231;DHT22;32569;51.762;8.564;2023-02-28T11:32:51;3.20;93.80
15231;DHT22;32569;51.762;8.564;2023-02-28T11:35:23;3.30;94.10
15231;DHT22;32569;51.762;8.564;2023-02-28T11:37:52;3.40;94.10
15231;DHT22;32569;51.762;8.564;2023-02-28T11:40:23;3.50;94.10
15231;DHT22;32569;51.762;8.564;2023-02-28T11:42:58;3.60;93.60
15231;DHT22;32569;51.762;8.564;2023-02-28T11:45:43;3.80;93.10
15231;DHT22;32569;51.762;8.564;2023-02-28T11:48:20;3.90;92.80
15231;DHT22;32569;51.762;8.564;2023-02-28T11:50:57;4.10;92.90
15231;DHT22;32569;51.762;8.564;2023-02-28T11:53:47;4.00;92.30
15231;DHT22;32569;51.762;8.564;2023-02-28T11:56:20;3.90;92.40
15231;DHT22;32569;51.762;8.564;2023-02-28T11:58:55;4.00;92.60
15231;DHT22;32569;51.762;8.564;2023-02-28T12:01:38;4.00;92.70
15231;DHT22;32569;51.762;8.564;2023-02-28T12:04:19;3.90;93.10
15231;DHT22;32569;51.762;8.564;2023-02-28T12:06:52;3.80;93.60
15231;DHT22;32569;51.762;8.564;2023-02-28T12:09:51;3.80;93.40
15231;DHT22;32569;51.762;8.564;2023-02-28T12:12:28;3.70;93.20
15231;DHT22;32569;51.762;8.564;2023-02-28T12:15:33;3.60;93.20
15231;DHT22;32569;51.762;8.564;2023-02-28T12:18:23;3.70;93.50
15231;DHT22;32569;51.762;8.564;2023-02-28T12:20:57;3.70;93.20
15231;DHT22;32569;51.762;8.564;2023-02-28T12:23:42;3.90;93.50
15231;DHT22;32569;51.762;8.564;2023-02-28T12:26:19;4.10;93.20
15231;DHT22;32569;51.762;8.564;2023-02-28T12:28:52;4.00;93.50
15231;DHT22;32569;51.762;8.564;2023-02-28T12:31:23;4.00;93.70
15231;DHT22;32569;51.762;8.564;2023-02-28T12:33:52;4.00;93.70
15231;DHT22;32569;51.762;8.564;2023-02-28T12:36:20;4.00;93.50
15231;DHT22;32569;51.762;8.564;2023-02-28T12:38:52;4.00;93.50
15231;DHT22;32569;51.762;8.564;2023-02-28T12:41:27;4.10;93.50
15231;DHT22;32569;51.762;8.564;2023-02-28T12:44:00;4.10;93.70
15231;DHT22;32569;51.762;8.564;2023-02-28T12:46:32;4.10;93.50
15231;DHT22;32569;51.762;8.564;2023-02-28T12:49:06;3.90;93.10
15231;DHT22;32569;51.762;8.564;2023-02-28T12:51:36;3.80;93.40
15231;DHT22;32569;51.762;8.564;2023-02-28T12:54:12;4.00;92.70
15231;DHT22;32569;51.762;8.564;2023-02-28T12:56:49;4.20;93.30
15231;DHT22;32569;51.762;8.564;2023-02-28T12:59:25;4.30;92.20
15231;DHT22;32569;51.762;8.564;2023-02-28T13:02:02;4.30;92.10
15231;DHT22;32569;51.762;8.564;2023-02-28T13:04:57;4.10;92.20
15231;DHT22;32569;51.762;8.564;2023-02-28T13:08:04;4.00;92.70
15231;DHT22;32569;51.762;8.564;2023-02-28T13:10:39;4.00;92.50
15231;DHT22;32569;51.762;8.564;2023-02-28T13:13:14;3.90;92.70
15231;DHT22;32569;51.762;8.564;2023-02-28T13:15:57;3.90;92.90
15231;DHT22;32569;51.762;8.564;2023-02-28T13:18:30;4.00;93.30
15231;DHT22;32569;51.762;8.564;2023-02-28T13:20:57;4.00;93.00
15231;DHT22;32569;51.762;8.564;2023-02-28T13:23:56;4.10;92.60
15231;DHT22;32569;51.762;8.564;2023-02-28T13:29:32;4.20;93.00
15231;DHT22;32569;51.762;8.564;2023-02-28T13:32:26;4.10;92.50
15231;DHT22;32569;51.762;8.564;2023-02-28T13:38:12;4.30;92.30
15231;DHT22;32569;51.762;8.564;2023-02-28T13:40:40;4.40;92.70
15231;DHT22;32569;51.762;8.564;2023-02-28T13:43:08;4.30;93.00
15231;DHT22;32569;51.762;8.564;2023-02-28T13:45:36;4.10;93.40
15231;DHT22;32569;51.762;8.564;2023-02-28T13:48:14;4.10;93.40
15231;DHT22;32569;51.762;8.564;2023-02-28T13:50:42;4.10;93.20
15231;DHT22;32569;51.762;8.564;2023-02-28T13:56:26;4.20;92.40
15231;DHT22;32569;51.762;8.564;2023-02-28T13:58:57;4.20;92.10
15231;DHT22;32569;51.762;8.564;2023-02-28T14:01:41;4.30;92.60
15231;DHT22;32569;51.762;8.564;2023-02-28T14:04:28;4.50;92.00
15231;DHT22;32569;51.762;8.564;2023-02-28T14:07:00;4.50;91.70
15231;DHT22;32569;51.762;8.564;2023-02-28T14:09:29;4.50;92.30
15231;DHT22;32569;51.762;8.564;2023-02-28T14:11:57;4.50;92.00
15231;DHT22;32569;51.762;8.564;2023-02-28T14:14:54;4.40;92.00
15231;DHT22;32569;51.762;8.564;2023-02-28T14:17:24;4.50;91.90
15231;DHT22;32569;51.762;8.564;2023-02-28T14:19:51;4.50;91.70
15231;DHT22;32569;51.762;8.564;2023-02-28T14:22:39;4.50;91.80
15231;DHT22;32569;51.762;8.564;2023-02-28T14:25:17;4.60;92.20
15231;DHT22;32569;51.762;8.564;2023-02-28T14:27:48;4.60;92.20
15231;DHT22;32569;51.762;8.564;2023-02-28T14:30:57;4.50;92.20
15231;DHT22;32569;51.762;8.564;2023-02-28T14:33:38;4.50;92.00
15231;DHT22;32569;51.762;8.564;2023-02-28T14:36:17;4.50;92.30
15231;DHT22;32569;51.762;8.564;2023-02-28T14:38:46;4.50;92.00
15231;DHT22;32569;51.762;8.564;2023-02-28T14:41:20;4.50;91.60
15231;DHT22;32569;51.762;8.564;2023-02-28T14:43:55;4.50;91.70
15231;DHT22;32569;51.762;8.564;2023-02-28T14:46:25;4.40;92.00
15231;DHT22;32569;51.762;8.564;2023-02-28T14:48:55;4.50;91.90
15231;DHT22;32569;51.762;8.564;2023-02-28T14:51:23;4.50;92.40
15231;DHT22;32569;51.762;8.564;2023-02-28T14:53:52;4.60;92.50
15231;DHT22;32569;51.762;8.564;2023-02-28T14:56:24;4.70;91.50
15231;DHT22;32569;51.762;8.564;2023-02-28T14:58:53;4.60;91.10
15231;DHT22;32569;51.762;8.564;2023-02-28T15:01:21;4.60;91.60
15231;DHT22;32569;51.762;8.564;2023-02-28T15:03:48;4.60;91.20
15231;DHT22;32569;51.762;8.564;2023-02-28T15:06:24;4.60;91.50
15231;DHT22;32569;51.762;8.564;2023-02-28T15:09:06;4.50;90.90
15231;DHT22;32569;51.762;8.564;2023-02-28T15:11:33;4.50;91.30
15231;DHT22;32569;51.762;8.564;2023-02-28T15:14:04;4.50;91.30
15231;DHT22;32569;51.762;8.564;2023-02-28T15:16:36;4.50;91.10
15231;DHT22;32569;51.762;8.564;2023-02-28T15:19:06;4.60;91.10
15231;DHT22;32569;51.762;8.564;2023-02-28T15:21:36;4.70;91.60
15231;DHT22;32569;51.762;8.564;2023-02-28T15:24:06;4.70;91.50
15231;DHT22;32569;51.762;8.564;2023-02-28T15:26:40;4.70;91.30
15231;DHT22;32569;51.762;8.564;2023-02-28T15:29:12;4.60;91.30
15231;DHT22;32569;51.762;8.564;2023-02-28T15:31:42;4.60;91.30
15231;DHT22;32569;51.762;8.564;2023-02-28T15:34:18;4.60;91.70
15231;DHT22;32569;51.762;8.564;2023-02-28T15:36:46;4.60;91.30
15231;DHT22;32569;51.762;8.564;2023-02-28T15:39:22;4.60;91.50
15231;DHT22;32569;51.762;8.564;2023-02-28T15:41:49;4.50;91.50
15231;DHT22;32569;51.762;8.564;2023-02-28T15:44:23;4.60;91.80
15231;DHT22;32569;51.762;8.564;2023-02-28T15:46:58;4.60;91.60
15231;DHT22;32569;51.762;8.564;2023-02-28T15:49:27;4.60;91.40
15231;DHT22;32569;51.762;8.564;2023-02-28T15:51:58;4.50;91.50
15231;DHT22;32569;51.762;8.564;2023-02-28T15:54:28;4.50;91.50
15231;DHT22;32569;51.762;8.564;2023-02-28T15:56:57;4.60;91.80
15231;DHT22;32569;51.762;8.564;2023-02-28T15:59:27;4.50;91.90
15231;DHT22;32569;51.762;8.564;2023-02-28T16:02:14;4.50;91.80
15231;DHT22;32569;51.762;8.564;2023-02-28T16:04:56;4.40;91.70
15231;DHT22;32569;51.762;8.564;2023-02-28T16:07:25;4.40;91.60
15231;DHT22;32569;51.762;8.564;2023-02-28T16:09:53;4.40;91.80
15231;DHT22;32569;51.762;8.564;2023-02-28T16:12:21;4.40;91.70
15231;DHT22;32569;51.762;8.564;2023-02-28T16:14:53;4.40;91.90
15231;DHT22;32569;51.762;8.564;2023-02-28T16:17:22;4.40;92.00